createdAt,value
2019-03-29T00:01:26.650Z,100873.34
2019-03-29T00:03:53.314Z,100581.69
2019-03-29T00:06:19.569Z,100857.95
2019-03-29T00:08:45.882Z,100857.80
2019-03-29T00:11:13.000Z,100859.19
2019-03-29T00:13:39.250Z,100868.73
2019-03-29T00:16:05.381Z,100868.73
2019-03-29T00:18:32.270Z,100863.95
2019-03-29T00:20:58.960Z,100863.95
2019-03-29T00:23:25.081Z,100860.22
2019-03-29T00:25:51.376Z,100871.16
2019-03-29T00:28:17.705Z,100869.59
2019-03-29T00:30:44.170Z,100881.76
2019-03-29T00:33:10.858Z,100864.28
2019-03-29T00:35:37.277Z,100874.20
2019-03-29T00:38:04.046Z,100892.88
2019-03-29T00:40:32.539Z,100863.08
2019-03-29T00:43:00.185Z,100670.44
2019-03-29T00:45:26.364Z,100865.27
2019-03-29T00:47:52.922Z,100860.30
2019-03-29T00:50:19.344Z,100872.02
2019-03-29T00:52:45.652Z,100670.97
2019-03-29T00:55:12.462Z,100863.32
2019-03-29T00:57:38.873Z,100862.12
2019-03-29T01:00:06.998Z,100855.61
2019-03-29T01:02:33.968Z,100857.08
2019-03-29T01:05:00.305Z,100868.84
2019-03-29T01:07:26.527Z,100853.19
2019-03-29T01:09:53.345Z,100872.41
2019-03-29T01:12:19.732Z,100857.42
2019-03-29T01:14:45.932Z,100867.50
2019-03-29T01:17:12.354Z,100851.06
2019-03-29T01:19:38.551Z,100651.52
2019-03-29T01:22:05.256Z,100859.83
2019-03-29T01:24:32.889Z,100853.31
2019-03-29T01:26:59.085Z,100849.14
2019-03-29T01:29:25.246Z,100662.12
2019-03-29T01:31:51.755Z,100850.61
2019-03-29T01:34:17.935Z,100675.00
2019-03-29T01:36:44.214Z,100847.81
2019-03-29T01:39:10.631Z,100858.77
2019-03-29T01:41:36.770Z,100841.49
2019-03-29T01:44:03.649Z,100859.12
2019-03-29T01:46:31.180Z,100833.48
2019-03-29T01:48:57.908Z,100840.19
2019-03-29T01:51:25.209Z,100843.41
2019-03-29T01:53:51.341Z,100848.00
2019-03-29T01:56:18.203Z,100838.70
2019-03-29T01:58:44.378Z,100833.55
2019-03-29T02:01:11.127Z,100838.52
2019-03-29T02:03:37.840Z,100831.77
2019-03-29T02:06:03.971Z,100428.48
2019-03-29T02:08:36.018Z,100810.28
2019-03-29T02:10:58.993Z,100824.81
2019-03-29T02:13:26.012Z,100819.85
2019-03-29T02:15:52.346Z,100834.94
2019-03-29T02:18:18.911Z,100812.81
2019-03-29T02:20:45.265Z,100829.89
2019-03-29T02:23:11.746Z,100827.37
2019-03-29T02:25:38.384Z,100808.36
2019-03-29T02:28:05.636Z,100812.33
2019-03-29T02:30:32.575Z,100809.22
2019-03-29T02:32:59.168Z,100812.33
2019-03-29T02:35:27.672Z,100812.53
2019-03-29T02:37:56.366Z,100816.69
2019-03-29T02:40:23.658Z,100810.94
2019-03-29T02:42:49.796Z,100824.84
2019-03-29T02:45:16.068Z,100806.87
2019-03-29T02:47:42.754Z,100804.86
2019-03-29T02:50:09.289Z,100814.23
2019-03-29T02:52:35.418Z,100810.05
2019-03-29T02:55:01.924Z,100811.12
2019-03-29T02:57:28.051Z,100803.97
2019-03-29T02:59:54.733Z,100792.70
2019-03-29T03:02:21.211Z,100802.59
2019-03-29T03:04:47.724Z,100803.21
2019-03-29T03:07:14.336Z,100791.47
2019-03-29T03:09:41.190Z,100801.39
2019-03-29T03:12:08.251Z,100790.28
2019-03-29T03:14:34.712Z,100787.14
2019-03-29T03:17:01.177Z,100794.95
2019-03-29T03:19:27.725Z,100789.20
2019-03-29T03:21:54.450Z,100805.50
2019-03-29T03:24:20.571Z,100798.56
2019-03-29T03:26:47.288Z,100797.17
2019-03-29T03:29:13.531Z,100786.69
2019-03-29T03:31:39.804Z,100781.30
2019-03-29T03:34:06.337Z,100800.74
2019-03-29T03:36:32.556Z,100787.05
2019-03-29T03:38:58.755Z,100786.61
2019-03-29T03:41:25.535Z,100787.38
2019-03-29T03:43:52.217Z,100780.00
2019-03-29T03:46:18.395Z,100781.58
2019-03-29T03:48:45.019Z,100782.97
2019-03-29T03:51:11.310Z,100794.68
2019-03-29T03:53:37.449Z,100778.20
2019-03-29T03:56:04.510Z,100779.41
2019-03-29T03:58:31.035Z,100776.27
2019-03-29T04:00:57.595Z,100786.95
2019-03-29T04:03:24.608Z,100778.45
2019-03-29T04:05:51.034Z,100775.50
2019-03-29T04:08:18.190Z,100781.48
2019-03-29T04:10:44.415Z,100775.30
2019-03-29T04:13:10.871Z,100766.21
2019-03-29T04:15:37.729Z,100782.45
2019-03-29T04:18:03.900Z,100769.58
2019-03-29T04:20:30.245Z,100769.58
2019-03-29T04:22:56.997Z,100760.45
2019-03-29T04:25:23.125Z,100783.91
2019-03-29T04:27:49.294Z,100776.44
2019-03-29T04:30:16.221Z,100510.83
2019-03-29T04:32:42.840Z,100774.09
2019-03-29T04:35:09.004Z,100757.23
2019-03-29T04:37:35.033Z,100774.09
2019-03-29T04:40:07.571Z,100777.63
2019-03-29T04:42:29.484Z,100773.03
2019-03-29T04:44:58.097Z,100759.14
2019-03-29T04:47:23.762Z,100784.34
2019-03-29T04:49:50.015Z,100767.67
2019-03-29T04:52:16.257Z,100759.67
2019-03-29T04:54:43.052Z,100769.23
2019-03-29T04:57:09.208Z,100756.72
2019-03-29T04:59:35.490Z,100764.03
2019-03-29T05:02:03.246Z,100762.20
2019-03-29T05:04:29.435Z,100757.25
2019-03-29T05:06:55.595Z,100745.11
2019-03-29T05:09:22.162Z,100773.84
2019-03-29T05:11:48.591Z,100755.19
2019-03-29T05:14:16.736Z,100755.19
2019-03-29T05:16:44.119Z,100751.19
2019-03-29T05:19:10.358Z,100754.92
2019-03-29T05:21:36.624Z,100751.19
2019-03-29T05:24:03.368Z,100752.21
2019-03-29T05:26:29.523Z,100752.41
2019-03-29T05:28:55.919Z,100756.14
2019-03-29T05:31:22.625Z,100757.27
2019-03-29T05:33:48.822Z,100760.40
2019-03-29T05:36:16.832Z,100770.65
2019-03-29T05:38:43.143Z,100778.91
2019-03-29T05:41:09.558Z,100609.52
2019-03-29T05:43:35.723Z,100767.84
2019-03-29T05:46:02.744Z,100783.64
2019-03-29T05:48:29.036Z,100772.25
2019-03-29T05:50:56.061Z,100772.53
2019-03-29T05:53:22.347Z,100773.84
2019-03-29T05:55:48.668Z,100773.48
2019-03-29T05:58:14.795Z,100773.84
2019-03-29T06:00:40.992Z,100797.28
2019-03-29T06:03:09.979Z,100800.25
2019-03-29T06:05:41.567Z,100778.02
2019-03-29T06:08:08.993Z,100777.58
2019-03-29T06:10:48.207Z,100784.09
2019-03-29T06:13:05.176Z,100783.22
2019-03-29T06:15:31.441Z,100782.35
2019-03-29T06:17:58.018Z,100787.48
2019-03-29T06:20:24.854Z,100570.97
2019-03-29T06:22:51.046Z,100784.89
2019-03-29T06:25:17.444Z,100780.28
2019-03-29T06:27:44.113Z,100787.40
2019-03-29T06:30:10.503Z,100791.77
2019-03-29T06:32:36.722Z,100794.11
2019-03-29T06:35:05.884Z,100803.05
2019-03-29T06:37:33.396Z,100784.81
2019-03-29T06:40:00.341Z,100794.70
2019-03-29T06:42:27.304Z,100796.81
2019-03-29T06:44:53.825Z,100783.06
2019-03-29T06:47:20.151Z,100613.02
2019-03-29T06:49:47.005Z,100787.11
2019-03-29T06:52:13.166Z,100785.20
2019-03-29T06:54:40.640Z,100794.58
2019-03-29T06:57:07.665Z,100792.50
2019-03-29T06:59:33.996Z,100790.39
2019-03-29T07:02:00.330Z,100785.53
2019-03-29T07:04:27.216Z,100783.78
2019-03-29T07:06:53.473Z,100791.44
2019-03-29T07:09:20.068Z,100786.04
2019-03-29T07:11:46.153Z,100789.69
2019-03-29T07:14:12.419Z,100784.03
2019-03-29T07:16:38.922Z,100782.39
2019-03-29T07:19:05.326Z,100780.03
2019-03-29T07:21:31.628Z,100790.80
2019-03-29T07:23:57.785Z,100745.16
2019-03-29T07:26:24.047Z,100783.72
2019-03-29T07:28:50.319Z,100758.03
2019-03-29T07:31:16.928Z,100791.98
2019-03-29T07:33:43.244Z,100798.85
2019-03-29T07:36:09.379Z,100580.22
2019-03-29T07:38:35.636Z,100778.80
2019-03-29T07:41:02.067Z,100777.72
2019-03-29T07:43:28.229Z,100785.59
2019-03-29T07:45:54.879Z,100781.47
2019-03-29T07:48:21.427Z,100782.87
2019-03-29T07:50:47.601Z,100800.28
2019-03-29T07:53:14.148Z,100780.48
2019-03-29T07:55:40.559Z,100779.16
2019-03-29T07:58:06.796Z,100790.86
2019-03-29T08:00:33.533Z,100708.16
2019-03-29T08:02:59.585Z,100781.17
2019-03-29T08:05:26.401Z,100782.73
2019-03-29T08:07:53.112Z,100769.05
2019-03-29T08:10:27.377Z,100771.44
2019-03-29T08:12:49.260Z,100772.30
2019-03-29T08:15:16.010Z,100577.59
2019-03-29T08:17:42.179Z,100771.77
2019-03-29T08:20:37.187Z,100770.47
2019-03-29T08:22:37.352Z,100777.21
2019-03-29T08:25:03.856Z,100767.98
2019-03-29T08:27:30.098Z,100768.23
2019-03-29T08:29:56.278Z,100766.55
2019-03-29T08:32:22.539Z,100768.46
2019-03-29T08:34:50.385Z,100765.58
2019-03-29T08:37:16.679Z,100759.86
2019-03-29T08:39:43.055Z,100772.10
2019-03-29T08:42:09.568Z,100786.91
2019-03-29T08:44:35.848Z,100775.69
2019-03-29T08:47:02.559Z,100766.98
2019-03-29T08:49:28.700Z,100755.51
2019-03-29T08:51:55.006Z,100767.73
2019-03-29T08:54:21.186Z,100761.02
2019-03-29T08:56:47.883Z,100753.91
2019-03-29T08:59:17.222Z,100749.39
2019-03-29T09:01:42.246Z,100764.12
2019-03-29T09:04:10.034Z,100742.50
2019-03-29T09:06:36.960Z,100746.92
2019-03-29T09:09:05.830Z,100733.66
2019-03-29T09:11:32.903Z,100739.50
2019-03-29T09:13:59.011Z,100735.98
2019-03-29T09:16:25.501Z,100737.27
2019-03-29T09:18:51.809Z,100733.73
2019-03-29T09:21:17.940Z,100737.94
2019-03-29T09:23:44.426Z,100734.24
2019-03-29T09:26:10.654Z,100736.44
2019-03-29T09:28:37.074Z,100731.64
2019-03-29T09:31:03.645Z,100725.86
2019-03-29T09:33:29.915Z,100732.58
2019-03-29T09:35:56.259Z,100722.92
2019-03-29T09:38:22.842Z,100719.65
2019-03-29T09:40:58.220Z,100724.31
2019-03-29T09:43:17.681Z,100715.63
2019-03-29T09:45:44.556Z,100720.77
2019-03-29T09:48:10.831Z,100711.29
2019-03-29T09:50:37.019Z,100716.71
2019-03-29T09:53:03.501Z,100711.90
2019-03-29T09:55:29.636Z,100714.23
2019-03-29T09:57:55.879Z,100715.52
2019-03-29T10:00:23.658Z,100716.33
2019-03-29T10:02:50.086Z,100720.70
2019-03-29T10:05:19.681Z,100714.48
2019-03-29T10:07:44.382Z,100713.53
2019-03-29T10:10:10.739Z,100712.75
2019-03-29T10:12:43.471Z,100709.31
2019-03-29T10:15:05.798Z,100713.53
2019-03-29T10:17:31.971Z,100705.56
2019-03-29T10:19:58.195Z,100704.80
2019-03-29T10:22:24.421Z,100705.13
2019-03-29T10:24:50.666Z,100701.83
2019-03-29T10:27:18.958Z,100695.73
2019-03-29T10:29:45.289Z,100685.14
2019-03-29T10:32:11.590Z,100688.27
2019-03-29T10:34:37.942Z,100690.71
2019-03-29T10:37:04.133Z,100695.23
2019-03-29T10:39:30.415Z,100690.71
2019-03-29T10:41:56.790Z,100681.89
2019-03-29T10:44:22.986Z,100691.82
2019-03-29T10:46:49.475Z,100679.03
2019-03-29T10:49:15.649Z,100679.00
2019-03-29T10:51:41.828Z,100672.33
2019-03-29T10:54:08.493Z,100670.28
2019-03-29T10:56:34.960Z,100685.55
2019-03-29T10:59:01.331Z,100672.14
2019-03-29T11:01:27.901Z,100666.39
2019-03-29T11:03:54.068Z,100664.20
2019-03-29T11:06:20.536Z,100667.17
2019-03-29T11:08:47.037Z,100661.23
2019-03-29T11:11:13.299Z,100674.76
2019-03-29T11:13:41.208Z,100655.70
2019-03-29T11:16:07.955Z,100668.16
2019-03-29T11:18:34.199Z,100663.92
2019-03-29T11:21:00.520Z,100653.89
2019-03-29T11:23:27.514Z,100663.48
2019-03-29T11:25:54.169Z,100656.11
2019-03-29T11:28:20.533Z,100651.38
2019-03-29T11:30:47.184Z,100648.09
2019-03-29T11:33:13.590Z,100653.53
2019-03-29T11:35:39.936Z,100649.58
2019-03-29T11:38:06.582Z,100645.53
2019-03-29T11:40:32.802Z,100647.59
2019-03-29T11:42:59.032Z,100641.23
2019-03-29T11:45:26.071Z,100632.77
2019-03-29T11:48:06.920Z,100624.64
2019-03-29T11:50:20.456Z,100621.61
2019-03-29T11:52:46.714Z,100617.34
2019-03-29T11:55:12.852Z,100618.35
2019-03-29T11:57:39.239Z,100610.92
2019-03-29T12:00:08.719Z,100604.62
2019-03-29T12:02:34.841Z,100601.81
2019-03-29T12:05:01.055Z,100611.74
2019-03-29T12:07:27.654Z,100589.34
2019-03-29T12:09:54.499Z,100590.55
2019-03-29T12:12:20.839Z,100589.23
2019-03-29T12:14:47.252Z,100584.38
2019-03-29T12:17:13.495Z,100582.81
2019-03-29T12:19:40.687Z,100577.81
2019-03-29T12:22:06.944Z,100572.30
2019-03-29T12:24:33.582Z,100563.95
2019-03-29T12:26:59.780Z,100558.25
2019-03-29T12:29:25.975Z,100562.16
2019-03-29T12:31:52.938Z,100556.69
2019-03-29T12:34:19.647Z,100554.24
2019-03-29T12:36:46.277Z,100551.67
2019-03-29T12:39:13.191Z,100547.09
2019-03-29T12:41:39.486Z,100541.89
2019-03-29T12:44:05.698Z,100534.94
2019-03-29T12:46:32.618Z,100532.09
2019-03-29T12:48:59.099Z,100529.38
2019-03-29T12:51:25.988Z,100525.30
2019-03-29T12:53:52.757Z,100532.66
2019-03-29T12:56:19.277Z,100521.07
2019-03-29T12:58:45.613Z,100515.03
2019-03-29T13:01:12.383Z,100511.55
2019-03-29T13:03:38.766Z,100504.49
2019-03-29T13:06:04.977Z,100506.77
2019-03-29T13:08:31.497Z,100494.89
2019-03-29T13:10:57.785Z,100507.14
2019-03-29T13:13:24.253Z,100495.60
2019-03-29T13:15:50.684Z,100489.31
2019-03-29T13:18:16.830Z,100494.36
2019-03-29T13:20:43.474Z,100478.23
2019-03-29T13:23:09.652Z,100483.83
2019-03-29T13:25:35.769Z,100477.83
2019-03-29T13:28:02.206Z,100476.60
2019-03-29T13:30:28.310Z,100474.19
2019-03-29T13:32:54.514Z,100467.52
2019-03-29T13:35:21.403Z,100465.43
2019-03-29T13:37:48.352Z,100454.93
2019-03-29T13:40:14.739Z,100457.79
2019-03-29T13:42:41.073Z,100451.88
2019-03-29T13:45:07.584Z,100444.52
2019-03-29T13:47:34.617Z,100444.03
2019-03-29T13:50:01.570Z,100290.09
2019-03-29T13:52:31.144Z,100439.20
2019-03-29T13:54:57.290Z,100432.53
2019-03-29T13:57:24.220Z,100426.70
2019-03-29T13:59:50.371Z,100428.20
2019-03-29T14:02:19.179Z,100423.61
2019-03-29T14:04:46.036Z,100415.65
2019-03-29T14:07:12.559Z,100418.72
2019-03-29T14:09:40.203Z,100418.39
2019-03-29T14:12:06.983Z,100406.86
2019-03-29T14:14:38.497Z,100400.13
2019-03-29T14:17:01.339Z,100393.89
2019-03-29T14:19:28.153Z,100391.77
2019-03-29T14:21:54.377Z,100394.28
2019-03-29T14:24:20.548Z,100396.83
2019-03-29T14:26:47.552Z,100387.62
2019-03-29T14:29:14.003Z,100203.77
2019-03-29T14:31:40.203Z,100375.77
2019-03-29T14:34:06.981Z,100381.38
2019-03-29T14:36:33.329Z,100375.17
2019-03-29T14:38:59.566Z,100366.81
2019-03-29T14:41:26.057Z,100364.69
2019-03-29T14:43:54.654Z,100362.08
2019-03-29T14:46:21.380Z,100359.03
2019-03-29T14:48:48.030Z,100355.02
2019-03-29T14:51:14.665Z,100360.01
2019-03-29T14:53:41.324Z,100357.82
2019-03-29T14:56:08.139Z,100356.61
2019-03-29T14:58:34.485Z,100346.84
2019-03-29T15:01:02.781Z,100350.46
2019-03-29T15:03:31.784Z,100037.41
2019-03-29T15:06:01.778Z,100340.08
2019-03-29T15:08:28.457Z,100332.27
2019-03-29T15:10:55.759Z,100330.47
2019-03-29T15:13:24.120Z,100325.34
2019-03-29T15:15:53.290Z,100320.64
2019-03-29T15:18:19.961Z,100314.90
2019-03-29T15:20:53.220Z,100154.52
2019-03-29T15:23:14.259Z,100314.47
2019-03-29T15:25:41.856Z,100314.80
2019-03-29T15:28:09.173Z,100309.34
2019-03-29T15:30:36.582Z,100305.45
2019-03-29T15:33:04.440Z,100302.36
2019-03-29T15:35:31.296Z,100305.03
2019-03-29T15:37:57.666Z,100299.13
2019-03-29T15:40:23.925Z,100299.77
2019-03-29T15:42:50.978Z,100296.05
2019-03-29T15:45:20.683Z,99959.46
2019-03-29T15:47:45.842Z,100296.51
2019-03-29T15:50:12.006Z,100286.12
2019-03-29T15:52:38.519Z,100302.80
2019-03-29T15:55:05.701Z,100293.46
2019-03-29T15:57:32.097Z,100289.31
2019-03-29T15:59:58.373Z,100288.26
2019-03-29T16:02:24.999Z,100279.00
2019-03-29T16:04:51.170Z,100276.22
2019-03-29T16:07:19.808Z,100282.94
2019-03-29T16:09:52.893Z,100279.89
2019-03-29T16:12:19.582Z,100275.70
2019-03-29T16:14:45.903Z,100276.67
2019-03-29T16:17:12.600Z,100274.70
2019-03-29T16:19:38.941Z,100270.81
2019-03-29T16:22:06.309Z,100268.06
2019-03-29T16:24:33.073Z,100298.59
2019-03-29T16:26:59.385Z,100272.81
2019-03-29T16:29:25.575Z,100264.45
2019-03-29T16:31:52.693Z,100270.85
2019-03-29T16:34:22.364Z,100276.02
2019-03-29T16:36:48.667Z,100269.36
2019-03-29T16:39:15.827Z,100263.77
2019-03-29T16:41:42.086Z,100010.84
2019-03-29T16:44:09.452Z,100258.39
2019-03-29T16:46:36.512Z,100263.73
2019-03-29T16:49:07.199Z,100262.98
2019-03-29T16:51:33.760Z,100259.92
2019-03-29T16:53:59.874Z,100256.23
2019-03-29T16:56:26.048Z,100254.40
2019-03-29T16:58:52.283Z,100243.38
2019-03-29T17:01:25.414Z,100246.96
2019-03-29T17:03:53.968Z,100250.72
2019-03-29T17:06:22.031Z,100246.55
2019-03-29T17:08:48.341Z,100072.33
2019-03-29T17:11:14.761Z,100239.91
2019-03-29T17:13:43.455Z,100231.30
2019-03-29T17:16:10.954Z,100236.63
2019-03-29T17:18:40.010Z,100231.38
2019-03-29T17:21:06.671Z,100226.26
2019-03-29T17:23:34.772Z,100225.06
2019-03-29T17:26:01.473Z,100227.59
2019-03-29T17:28:33.737Z,100232.12
2019-03-29T17:31:05.512Z,100230.77
2019-03-29T17:33:33.045Z,100252.42
2019-03-29T17:36:00.912Z,100069.81
2019-03-29T17:38:27.735Z,100223.25
2019-03-29T17:40:54.166Z,100220.64
2019-03-29T17:43:23.496Z,100224.84
2019-03-29T17:45:49.980Z,100222.23
2019-03-29T17:48:16.413Z,100221.95
2019-03-29T17:50:44.540Z,100224.14
2019-03-29T17:53:11.478Z,100224.10
2019-03-29T17:55:38.295Z,100033.01
2019-03-29T17:58:04.867Z,100217.46
2019-03-29T18:00:31.712Z,100215.91
2019-03-29T18:02:58.098Z,100228.59
2019-03-29T18:05:24.379Z,100046.70
2019-03-29T18:07:51.096Z,100212.91
2019-03-29T18:10:17.780Z,100215.53
2019-03-29T18:12:44.015Z,100221.44
2019-03-29T18:15:13.014Z,100208.84
2019-03-29T18:17:40.164Z,100213.64
2019-03-29T18:20:07.774Z,100216.71
2019-03-29T18:22:38.044Z,100213.13
2019-03-29T18:25:08.273Z,100218.98
2019-03-29T18:27:34.837Z,100208.56
2019-03-29T18:30:05.379Z,100238.75
2019-03-29T18:32:31.617Z,100207.58
2019-03-29T18:34:57.838Z,100212.77
2019-03-29T18:37:24.850Z,100221.58
2019-03-29T18:39:54.842Z,100214.73
2019-03-29T18:42:21.160Z,100213.87
2019-03-29T18:44:47.453Z,100026.20
2019-03-29T18:47:15.396Z,100211.56
2019-03-29T18:49:42.134Z,100211.52
2019-03-29T18:52:08.392Z,100208.81
2019-03-29T18:54:34.708Z,100206.13
2019-03-29T18:57:02.647Z,100211.79
2019-03-29T18:59:32.788Z,100216.84
2019-03-29T19:02:01.436Z,100214.16
2019-03-29T19:04:27.909Z,99814.82
2019-03-29T19:06:54.104Z,100215.69
2019-03-29T19:09:20.496Z,100212.87
2019-03-29T19:11:47.019Z,100208.48
2019-03-29T19:14:14.033Z,100208.29
2019-03-29T19:16:58.075Z,100210.52
2019-03-29T19:19:14.599Z,100213.53
2019-03-29T19:21:41.620Z,100212.33
2019-03-29T19:24:08.412Z,100208.57
2019-03-29T19:26:34.737Z,100209.58
2019-03-29T19:29:01.378Z,100210.14
2019-03-29T19:31:29.684Z,100219.83
2019-03-29T19:33:56.651Z,100208.92
2019-03-29T19:36:23.522Z,100203.32
2019-03-29T19:38:50.947Z,100212.81
2019-03-29T19:41:18.304Z,100215.55
2019-03-29T19:43:44.980Z,100219.63
2019-03-29T19:46:12.097Z,100218.98
2019-03-29T19:48:38.289Z,100220.92
2019-03-29T19:51:08.374Z,100220.53
2019-03-29T19:53:37.324Z,100215.86
2019-03-29T19:56:03.460Z,100214.23
2019-03-29T19:58:31.246Z,100212.80
2019-03-29T20:00:59.378Z,100221.83
2019-03-29T20:03:26.511Z,100221.48
2019-03-29T20:05:52.664Z,100212.94
2019-03-29T20:08:19.899Z,100217.64
2019-03-29T20:10:46.217Z,100229.61
2019-03-29T20:13:12.511Z,100220.63
2019-03-29T20:15:38.667Z,100218.73
2019-03-29T20:18:08.597Z,100221.77
2019-03-29T20:20:35.434Z,100218.92
2019-03-29T20:23:04.862Z,100219.81
2019-03-29T20:25:31.466Z,100211.14
2019-03-29T20:27:58.665Z,100217.73
2019-03-29T20:30:25.808Z,100216.28
2019-03-29T20:32:53.268Z,100214.55
2019-03-29T20:35:19.618Z,100214.64
2019-03-29T20:37:47.707Z,100215.52
2019-03-29T20:40:14.000Z,100216.41
2019-03-29T20:42:43.965Z,100215.36
2019-03-29T20:45:11.415Z,100217.63
2019-03-29T20:47:42.282Z,100211.58
2019-03-29T20:50:06.614Z,100211.06
2019-03-29T20:52:33.294Z,100211.25
2019-03-29T20:55:03.632Z,100214.64
2019-03-29T20:57:29.878Z,100027.70
2019-03-29T20:59:56.670Z,100217.36
2019-03-29T21:02:23.564Z,100212.47
2019-03-29T21:04:51.334Z,100213.19
2019-03-29T21:07:17.875Z,100206.15
2019-03-29T21:09:44.561Z,100205.91
2019-03-29T21:12:11.225Z,100210.41
2019-03-29T21:14:37.408Z,100202.80
2019-03-29T21:17:03.666Z,100195.52
2019-03-29T21:19:30.541Z,99991.08
2019-03-29T21:21:56.711Z,100206.41
2019-03-29T21:24:23.041Z,100197.42
2019-03-29T21:26:52.096Z,100202.27
2019-03-29T21:29:18.842Z,100021.79
2019-03-29T21:31:46.132Z,100195.26
2019-03-29T21:34:12.643Z,100200.44
2019-03-29T21:36:41.189Z,100195.85
2019-03-29T21:39:24.554Z,100200.52
2019-03-29T21:41:50.826Z,100199.02
2019-03-29T21:44:17.275Z,100189.59
2019-03-29T21:46:43.596Z,100192.01
2019-03-29T21:49:10.147Z,100187.26
2019-03-29T21:51:36.433Z,100187.09
2019-03-29T21:54:03.459Z,100187.69
2019-03-29T21:56:29.964Z,100184.41
2019-03-29T21:58:56.575Z,100189.31
2019-03-29T22:01:23.219Z,100184.21
2019-03-29T22:03:49.729Z,100176.94
2019-03-29T22:06:16.107Z,100173.84
2019-03-29T22:08:42.998Z,100172.89
2019-03-29T22:11:09.328Z,100168.98
2019-03-29T22:13:35.886Z,100170.80
2019-03-29T22:16:04.467Z,100164.97
2019-03-29T22:18:37.880Z,100164.30
2019-03-29T22:20:59.327Z,100166.11
2019-03-29T22:23:27.088Z,100160.65
2019-03-29T22:25:53.353Z,100154.75
2019-03-29T22:28:19.806Z,100158.03
2019-03-29T22:30:48.324Z,100147.62
2019-03-29T22:33:14.689Z,100150.66
2019-03-29T22:35:40.828Z,100151.69
2019-03-29T22:38:07.652Z,100148.41
2019-03-29T22:40:33.862Z,100148.64
2019-03-29T22:43:00.020Z,100146.73
2019-03-29T22:45:26.524Z,100142.22
2019-03-29T22:47:52.663Z,100136.95
2019-03-29T22:50:18.946Z,100134.86
2019-03-29T22:52:45.194Z,100133.74
2019-03-29T22:55:11.447Z,100131.05
2019-03-29T22:57:37.603Z,100136.65
2019-03-29T23:00:12.299Z,100130.39
2019-03-29T23:02:39.038Z,100131.25
2019-03-29T23:05:06.341Z,100138.66
2019-03-29T23:07:32.467Z,100129.06
2019-03-29T23:09:58.751Z,100120.66
2019-03-29T23:12:25.050Z,100128.27
2019-03-29T23:14:52.768Z,100117.70
2019-03-29T23:17:19.023Z,100117.15
2019-03-29T23:19:45.284Z,100114.13
2019-03-29T23:22:11.732Z,100115.37
2019-03-29T23:24:38.853Z,100114.48
2019-03-29T23:27:06.941Z,100110.83
2019-03-29T23:29:33.129Z,100111.94
2019-03-29T23:31:59.354Z,100117.16
2019-03-29T23:34:26.100Z,100119.20
2019-03-29T23:36:52.549Z,100117.12
2019-03-29T23:39:18.739Z,100118.73
2019-03-29T23:41:45.535Z,99693.15
2019-03-29T23:44:11.924Z,100110.34
2019-03-29T23:46:38.278Z,100116.55
2019-03-29T23:49:04.833Z,100107.70
2019-03-29T23:51:31.355Z,100104.00
2019-03-29T23:53:57.609Z,100108.20
2019-03-29T23:56:24.264Z,99901.95
2019-03-29T23:58:50.394Z,100095.56
